Time;durP1;ratioP1;P1;durP2;ratioP2;P2;SDS_P1;SDS_P2;PMS_P1;PMS_P2;Temp;Humidity;BMP_temperature;BMP_pressure;BME280_temperature;BME280_humidity;BME280_pressure;Samples;Min_cycle;Max_cycle;Signal;HPM_P1;HPM_P2
2023/01/22 00:00:25;;;;;;;0.10;0.10;;;;;;;;;;4996527;28;20653;-80
2023/01/22 00:02:54;;;;;;;0.10;0.10;;;;;;;;;;4996485;28;20266;-80
2023/01/22 00:05:22;;;;;;;0.10;0.10;;;;;;;;;;4996004;28;20224;-81
2023/01/22 00:07:51;;;;;;;0.10;0.10;;;;;;;;;;4996374;28;20263;-79
2023/01/22 00:10:19;;;;;;;0.10;0.10;;;;;;;;;;4996050;28;20208;-79
2023/01/22 00:12:48;;;;;;;0.10;0.10;;;;;;;;;;4996365;28;20680;-80
2023/01/22 00:15:16;;;;;;;0.10;0.10;;;;;;;;;;4996246;28;20326;-82
2023/01/22 00:17:46;;;;;;;0.10;0.10;;;;;;;;;;4995135;28;20263;-81
2023/01/22 00:20:14;;;;;;;0.10;0.10;;;;;;;;;;4995335;28;20208;-81
2023/01/22 00:22:43;;;;;;;0.10;0.10;;;;;;;;;;4996204;28;20208;-81
2023/01/22 00:25:12;;;;;;;0.10;0.10;;;;;;;;;;4996547;28;20716;-81
2023/01/22 00:27:42;;;;;;;0.10;0.10;;;;;;;;;;4996282;28;20237;-80
2023/01/22 00:30:11;;;;;;;0.10;0.10;;;;;;;;;;4993206;28;20286;-79
2023/01/22 00:32:40;;;;;;;0.10;0.10;;;;;;;;;;4994230;28;20208;-80
2023/01/22 00:35:10;;;;;;;0.00;0.00;;;;;;;;;;4995058;28;20616;-81
2023/01/22 00:37:38;;;;;;;0.00;0.00;;;;;;;;;;4994929;28;20307;-81
2023/01/22 00:40:07;;;;;;;0.10;0.10;;;;;;;;;;4995065;28;20239;-80
2023/01/22 00:42:35;;;;;;;0.00;0.00;;;;;;;;;;4995018;28;20217;-81
2023/01/22 00:45:04;;;;;;;0.10;0.10;;;;;;;;;;4996022;28;20224;-81
2023/01/22 00:47:34;;;;;;;0.10;0.10;;;;;;;;;;4995754;28;20205;-81
2023/01/22 00:50:03;;;;;;;0.10;0.10;;;;;;;;;;4996101;28;20208;-81
2023/01/22 00:52:33;;;;;;;0.10;0.10;;;;;;;;;;4995788;28;20237;-81
2023/01/22 00:55:01;;;;;;;0.10;0.10;;;;;;;;;;4996008;28;20208;-81
2023/01/22 00:57:30;;;;;;;0.00;0.00;;;;;;;;;;4995350;28;20212;-81
2023/01/22 00:59:58;;;;;;;0.10;0.10;;;;;;;;;;4995625;28;20216;-81
2023/01/22 01:02:26;;;;;;;0.10;0.10;;;;;;;;;;4995226;28;20203;-81
2023/01/22 01:04:56;;;;;;;0.10;0.10;;;;;;;;;;4995548;28;20266;-81
2023/01/22 01:07:24;;;;;;;0.10;0.10;;;;;;;;;;4995797;28;20250;-81
2023/01/22 01:09:54;;;;;;;0.10;0.10;;;;;;;;;;4995862;28;20219;-81
2023/01/22 01:12:22;;;;;;;0.00;0.00;;;;;;;;;;4995549;28;20211;-81
2023/01/22 01:14:51;;;;;;;0.10;0.10;;;;;;;;;;4995394;28;20204;-81
2023/01/22 01:17:19;;;;;;;0.10;0.10;;;;;;;;;;4995678;28;20681;-82
2023/01/22 01:19:48;;;;;;;0.00;0.00;;;;;;;;;;4995274;28;20213;-82
2023/01/22 01:22:16;;;;;;;0.00;0.00;;;;;;;;;;4995254;28;20205;-82
2023/01/22 01:24:44;;;;;;;0.00;0.00;;;;;;;;;;4995519;28;20247;-82
2023/01/22 01:27:14;;;;;;;0.10;0.10;;;;;;;;;;4995437;28;20258;-81
2023/01/22 01:29:43;;;;;;;0.10;0.10;;;;;;;;;;4995152;28;20262;-82
2023/01/22 01:32:11;;;;;;;0.00;0.00;;;;;;;;;;4995326;28;20262;-82
2023/01/22 01:34:40;;;;;;;0.10;0.10;;;;;;;;;;4995269;28;20248;-81
2023/01/22 01:37:08;;;;;;;0.00;0.00;;;;;;;;;;4995221;28;20628;-82
2023/01/22 01:39:37;;;;;;;0.10;0.10;;;;;;;;;;4994844;28;20314;-81
2023/01/22 01:42:05;;;;;;;0.10;0.10;;;;;;;;;;4994715;28;20244;-82
2023/01/22 01:44:35;;;;;;;0.10;0.10;;;;;;;;;;4995729;28;20753;-82
2023/01/22 01:47:05;;;;;;;0.10;0.10;;;;;;;;;;4995122;28;20559;-83
2023/01/22 01:49:35;;;;;;;0.00;0.00;;;;;;;;;;4994611;28;20223;-82
2023/01/22 01:52:05;;;;;;;0.00;0.00;;;;;;;;;;4994836;28;20269;-82
2023/01/22 01:54:34;;;;;;;0.10;0.10;;;;;;;;;;4995140;28;20571;-83
2023/01/22 01:57:07;;;;;;;0.10;0.10;;;;;;;;;;4995299;28;20235;-82
2023/01/22 01:59:37;;;;;;;0.10;0.10;;;;;;;;;;4994646;28;20701;-83
2023/01/22 02:02:06;;;;;;;0.10;0.10;;;;;;;;;;5002226;28;20222;-82
2023/01/22 02:04:34;;;;;;;0.10;0.10;;;;;;;;;;5014292;28;20218;-82
2023/01/22 02:07:04;;;;;;;0.00;0.00;;;;;;;;;;5014445;28;20211;-81
2023/01/22 02:09:32;;;;;;;0.00;0.00;;;;;;;;;;5014651;28;20305;-82
2023/01/22 02:12:01;;;;;;;0.00;0.00;;;;;;;;;;5014499;28;20269;-83
2023/01/22 02:14:31;;;;;;;0.10;0.10;;;;;;;;;;5014385;28;20208;-83
2023/01/22 02:17:01;;;;;;;0.00;0.00;;;;;;;;;;5014238;28;20210;-82
2023/01/22 02:19:30;;;;;;;0.10;0.10;;;;;;;;;;5014353;28;20688;-82
2023/01/22 02:22:00;;;;;;;0.00;0.00;;;;;;;;;;5014572;28;20207;-81
2023/01/22 02:24:30;;;;;;;0.00;0.00;;;;;;;;;;5014347;28;20246;-83
2023/01/22 02:26:59;;;;;;;0.07;0.07;;;;;;;;;;5015463;28;20322;-83
2023/01/22 02:29:27;;;;;;;0.10;0.10;;;;;;;;;;5016607;28;20262;-83
2023/01/22 02:31:56;;;;;;;0.10;0.10;;;;;;;;;;5016745;28;20211;-83
2023/01/22 02:34:24;;;;;;;0.10;0.10;;;;;;;;;;5016693;28;20230;-83
2023/01/22 02:36:53;;;;;;;0.10;0.10;;;;;;;;;;5017733;28;20561;-83
2023/01/22 02:39:23;;;;;;;0.10;0.10;;;;;;;;;;5017278;28;20230;-83
2023/01/22 02:41:52;;;;;;;0.10;0.10;;;;;;;;;;5017388;28;20203;-84
2023/01/22 02:44:20;;;;;;;0.00;0.00;;;;;;;;;;5017943;28;20207;-83
2023/01/22 02:46:49;;;;;;;0.00;0.00;;;;;;;;;;5017945;28;20701;-83
2023/01/22 02:49:17;;;;;;;0.00;0.00;;;;;;;;;;5018141;28;20235;-83
2023/01/22 02:51:46;;;;;;;0.10;0.10;;;;;;;;;;5019042;28;20210;-84
2023/01/22 02:54:14;;;;;;;0.00;0.00;;;;;;;;;;5020622;28;20212;-83
2023/01/22 02:56:44;;;;;;;0.00;0.00;;;;;;;;;;5022612;28;20215;-84
2023/01/22 02:59:13;;;;;;;0.00;0.00;;;;;;;;;;5022297;28;20234;-83
2023/01/22 03:01:41;;;;;;;0.10;0.10;;;;;;;;;;5022621;28;20273;-84
2023/01/22 03:04:10;;;;;;;0.07;0.07;;;;;;;;;;5022431;28;20246;-84
2023/01/22 03:06:39;;;;;;;0.00;0.00;;;;;;;;;;5022785;28;20231;-84
2023/01/22 03:09:09;;;;;;;0.00;0.00;;;;;;;;;;5022731;28;20261;-83
2023/01/22 03:11:38;;;;;;;0.10;0.10;;;;;;;;;;5023417;28;20219;-83
2023/01/22 03:22:27;;;;;;;0.10;0.10;;;;;;;;;;5024667;28;20190;-83
2023/01/22 03:24:57;;;;;;;0.00;0.00;;;;;;;;;;5023386;28;20203;-84
2023/01/22 03:27:26;;;;;;;0.00;0.00;;;;;;;;;;5023250;28;20227;-84
2023/01/22 03:29:56;;;;;;;0.00;0.00;;;;;;;;;;5024501;28;20239;-84
2023/01/22 03:32:25;;;;;;;0.00;0.00;;;;;;;;;;5026060;28;20277;-82
2023/01/22 03:34:54;;;;;;;0.00;0.00;;;;;;;;;;5025015;28;20570;-83
2023/01/22 03:37:22;;;;;;;0.00;0.00;;;;;;;;;;5024737;28;20202;-83
2023/01/22 03:39:51;;;;;;;0.00;0.00;;;;;;;;;;5025075;28;20213;-84
2023/01/22 03:42:19;;;;;;;0.00;0.00;;;;;;;;;;5027651;28;20244;-84
2023/01/22 03:44:48;;;;;;;0.10;0.10;;;;;;;;;;5025886;28;20215;-84
2023/01/22 03:47:19;;;;;;;0.10;0.10;;;;;;;;;;5026330;28;20223;-83
2023/01/22 03:49:48;;;;;;;0.03;0.03;;;;;;;;;;5026904;28;20188;-84
2023/01/22 03:52:19;;;;;;;0.00;0.00;;;;;;;;;;5024841;28;20278;-83
2023/01/22 03:54:48;;;;;;;0.00;0.00;;;;;;;;;;5024668;28;20263;-84
2023/01/22 03:57:17;;;;;;;0.00;0.00;;;;;;;;;;5025256;28;20262;-83
2023/01/22 03:59:46;;;;;;;0.03;0.03;;;;;;;;;;5025737;28;20659;-83
2023/01/22 04:02:15;;;;;;;0.00;0.00;;;;;;;;;;5026210;28;20211;-83
2023/01/22 04:04:46;;;;;;;0.00;0.00;;;;;;;;;;5026536;28;20217;-83
2023/01/22 04:07:15;;;;;;;0.10;0.10;;;;;;;;;;5028776;28;20226;-84
2023/01/22 04:09:45;;;;;;;0.00;0.00;;;;;;;;;;5029067;28;20241;-83
2023/01/22 04:12:15;;;;;;;0.00;0.00;;;;;;;;;;5030342;28;20207;-83
2023/01/22 04:14:45;;;;;;;0.00;0.00;;;;;;;;;;5031426;28;20195;-84
2023/01/22 04:17:14;;;;;;;0.10;0.10;;;;;;;;;;5030222;28;20223;-84
2023/01/22 04:19:43;;;;;;;0.00;0.00;;;;;;;;;;5030029;28;20232;-83
2023/01/22 04:22:14;;;;;;;0.00;0.00;;;;;;;;;;5028560;28;20214;-83
2023/01/22 04:24:43;;;;;;;0.00;0.00;;;;;;;;;;5030518;28;20211;-83
2023/01/22 04:27:13;;;;;;;0.00;0.00;;;;;;;;;;5032460;28;20241;-83
2023/01/22 04:29:43;;;;;;;0.07;0.07;;;;;;;;;;5027536;28;20705;-83
2023/01/22 04:32:11;;;;;;;0.00;0.00;;;;;;;;;;5024613;28;20273;-83
2023/01/22 04:34:40;;;;;;;0.00;0.00;;;;;;;;;;5025432;28;20233;-83
2023/01/22 04:37:08;;;;;;;0.10;0.10;;;;;;;;;;5028877;28;20208;-82
2023/01/22 04:39:38;;;;;;;0.10;0.10;;;;;;;;;;5028242;28;20227;-82
2023/01/22 04:42:07;;;;;;;0.00;0.00;;;;;;;;;;5016422;28;20219;-82
2023/01/22 04:44:37;;;;;;;0.10;0.10;;;;;;;;;;5028911;28;20210;-82
2023/01/22 04:47:06;;;;;;;0.00;0.00;;;;;;;;;;5029687;28;20220;-82
2023/01/22 04:49:34;;;;;;;0.00;0.00;;;;;;;;;;5027880;28;20290;-82
2023/01/22 04:52:03;;;;;;;0.10;0.10;;;;;;;;;;5030928;28;20215;-82
2023/01/22 04:54:31;;;;;;;0.00;0.00;;;;;;;;;;5027267;28;20393;-83
2023/01/22 04:57:02;;;;;;;0.10;0.10;;;;;;;;;;5023967;28;20254;-83
2023/01/22 04:59:31;;;;;;;0.00;0.00;;;;;;;;;;5025940;28;20226;-83
2023/01/22 05:02:02;;;;;;;0.10;0.10;;;;;;;;;;5022596;28;20203;-82
2023/01/22 05:04:30;;;;;;;0.00;0.00;;;;;;;;;;5023552;28;20246;-82
2023/01/22 05:06:59;;;;;;;0.00;0.00;;;;;;;;;;5024177;28;20704;-83
2023/01/22 05:09:28;;;;;;;0.07;0.07;;;;;;;;;;5025282;28;20223;-83
2023/01/22 05:11:57;;;;;;;0.10;0.10;;;;;;;;;;5025822;28;20211;-83
2023/01/22 05:14:27;;;;;;;0.00;0.00;;;;;;;;;;5030029;28;20210;-83
2023/01/22 05:16:57;;;;;;;0.10;0.10;;;;;;;;;;5031172;28;20207;-82
2023/01/22 05:19:26;;;;;;;0.03;0.03;;;;;;;;;;5029895;28;20297;-83
2023/01/22 05:21:55;;;;;;;0.00;0.00;;;;;;;;;;5030821;28;20233;-83
2023/01/22 05:24:46;;;;;;;0.00;0.00;;;;;;;;;;5036287;28;20182;-83
2023/01/22 05:27:16;;;;;;;0.00;0.00;;;;;;;;;;5033222;28;20265;-82
2023/01/22 05:30:10;;;;;;;0.10;0.10;;;;;;;;;;5024614;28;20688;-83
2023/01/22 05:36:05;;;;;;;0.10;0.10;;;;;;;;;;5047126;28;20238;-84
2023/01/22 05:39:01;;;;;;;0.00;0.00;;;;;;;;;;5039403;28;20225;-83
2023/01/22 06:46:54;;;;;;;0.00;0.00;;;;;;;;;;4972356;28;20589;-83
2023/01/22 06:49:24;;;;;;;0.00;0.00;;;;;;;;;;4967911;28;20236;-82
2023/01/22 06:51:55;;;;;;;0.00;0.00;;;;;;;;;;4974057;28;20225;-82
2023/01/22 06:58:16;;;;;;;0.10;0.10;;;;;;;;;;4975656;28;20211;-83
2023/01/22 07:27:43;;;;;;;0.10;0.10;;;;;;;;;;5010330;28;20255;-82
2023/01/22 07:30:45;;;;;;;0.00;0.00;;;;;;;;;;4989504;28;20204;-82
2023/01/22 07:33:51;;;;;;;0.00;0.00;;;;;;;;;;4995033;28;20192;-83
2023/01/22 07:36:25;;;;;;;0.00;0.00;;;;;;;;;;4990164;28;20208;-83
2023/01/22 07:41:52;;;;;;;0.00;0.00;;;;;;;;;;5457613;23;20272;-81
2023/01/22 07:44:52;;;;;;;0.00;0.00;;;;;;;;;;4998999;28;20199;-82
2023/01/22 08:11:45;;;;;;;0.00;0.00;;;;;;;;;;5034580;28;20187;-82
2023/01/22 08:29:08;;;;;;;0.10;0.10;;;;;;;;;;5113122;23;20245;-83
2023/01/22 08:31:39;;;;;;;0.00;0.00;;;;;;;;;;4992334;28;20192;-82
2023/01/22 08:34:10;;;;;;;0.10;0.10;;;;;;;;;;4990932;28;20220;-83
2023/01/22 08:36:42;;;;;;;0.00;0.00;;;;;;;;;;5162535;23;20256;-82
2023/01/22 08:39:12;;;;;;;0.00;0.00;;;;;;;;;;4993794;28;20237;-83
2023/01/22 08:41:42;;;;;;;0.00;0.00;;;;;;;;;;4995107;28;20436;-84
2023/01/22 08:52:39;;;;;;;0.00;0.00;;;;;;;;;;5503911;23;20229;-82
2023/01/22 08:55:11;;;;;;;0.00;0.00;;;;;;;;;;4992714;28;20208;-82
2023/01/22 08:57:46;;;;;;;0.10;0.10;;;;;;;;;;4988785;28;20264;-82
2023/01/22 09:00:19;;;;;;;0.00;0.00;;;;;;;;;;4986794;28;20289;-83
2023/01/22 09:02:48;;;;;;;0.00;0.00;;;;;;;;;;4986311;28;20213;-82
2023/01/22 09:05:17;;;;;;;0.00;0.00;;;;;;;;;;4982733;28;20205;-82
2023/01/22 09:07:46;;;;;;;0.00;0.00;;;;;;;;;;4982655;28;20301;-82
2023/01/22 09:10:15;;;;;;;0.00;0.00;;;;;;;;;;4981567;28;20223;-82
2023/01/22 09:12:47;;;;;;;0.10;0.10;;;;;;;;;;4979257;28;20213;-81
2023/01/22 09:15:17;;;;;;;0.00;0.00;;;;;;;;;;4982128;28;20209;-81
2023/01/22 09:17:46;;;;;;;0.00;0.00;;;;;;;;;;4965962;28;20237;-82
2023/01/22 09:20:17;;;;;;;0.00;0.00;;;;;;;;;;4970919;28;20212;-82
2023/01/22 09:22:46;;;;;;;0.00;0.00;;;;;;;;;;4974635;28;20599;-82
2023/01/22 09:25:15;;;;;;;0.00;0.00;;;;;;;;;;4979650;28;20213;-82
2023/01/22 09:27:43;;;;;;;0.00;0.00;;;;;;;;;;4974860;28;20233;-81
2023/01/22 09:30:13;;;;;;;0.10;0.10;;;;;;;;;;4976295;28;20746;-81
2023/01/22 09:32:43;;;;;;;0.10;0.10;;;;;;;;;;4958547;28;20233;-81
2023/01/22 09:35:11;;;;;;;0.00;0.00;;;;;;;;;;4969590;28;20256;-80
2023/01/22 09:37:42;;;;;;;0.00;0.00;;;;;;;;;;4971198;28;20224;-80
2023/01/22 09:40:13;;;;;;;0.00;0.00;;;;;;;;;;4974748;28;20208;-80
2023/01/22 09:42:42;;;;;;;0.00;0.00;;;;;;;;;;4971294;28;20649;-80
2023/01/22 09:45:12;;;;;;;0.00;0.00;;;;;;;;;;4957984;28;20240;-79
2023/01/22 09:47:41;;;;;;;0.00;0.00;;;;;;;;;;4966547;28;20213;-79
2023/01/22 09:50:17;;;;;;;0.00;0.00;;;;;;;;;;4971607;28;20670;-80
2023/01/22 09:52:46;;;;;;;0.00;0.00;;;;;;;;;;4971984;28;20678;-79
2023/01/22 09:55:17;;;;;;;0.00;0.00;;;;;;;;;;4963083;28;20203;-80
2023/01/22 09:57:46;;;;;;;0.00;0.00;;;;;;;;;;4960785;28;20275;-79
2023/01/22 10:00:16;;;;;;;0.00;0.00;;;;;;;;;;4973939;28;20709;-79
2023/01/22 10:02:46;;;;;;;0.00;0.00;;;;;;;;;;4967085;28;20210;-79
2023/01/22 10:05:20;;;;;;;0.00;0.00;;;;;;;;;;4971045;28;20229;-79
2023/01/22 10:07:52;;;;;;;0.00;0.00;;;;;;;;;;4972538;28;20652;-79
2023/01/22 10:10:21;;;;;;;0.10;0.10;;;;;;;;;;4973822;28;20663;-79
2023/01/22 10:12:51;;;;;;;0.00;0.00;;;;;;;;;;4966583;28;20225;-79
2023/01/22 10:15:21;;;;;;;0.10;0.10;;;;;;;;;;4957104;28;20206;-79
2023/01/22 10:17:49;;;;;;;0.00;0.00;;;;;;;;;;4965000;28;20697;-79
2023/01/22 10:20:20;;;;;;;0.00;0.00;;;;;;;;;;4969579;28;20231;-79
2023/01/22 10:22:48;;;;;;;0.07;0.07;;;;;;;;;;4973110;28;20305;-79
2023/01/22 10:25:17;;;;;;;0.00;0.00;;;;;;;;;;4971322;28;20265;-78
2023/01/22 10:27:47;;;;;;;0.03;0.03;;;;;;;;;;4972471;28;20281;-79
2023/01/22 10:30:21;;;;;;;0.00;0.00;;;;;;;;;;4970989;28;20664;-78
2023/01/22 10:33:00;;;;;;;0.03;0.03;;;;;;;;;;4972602;28;20229;-78
2023/01/22 10:35:31;;;;;;;0.00;0.00;;;;;;;;;;4956070;28;20666;-78
2023/01/22 10:38:00;;;;;;;0.00;0.00;;;;;;;;;;4971761;28;20245;-78
2023/01/22 10:40:30;;;;;;;0.00;0.00;;;;;;;;;;4969241;28;20204;-78
2023/01/22 10:43:03;;;;;;;0.00;0.00;;;;;;;;;;4970608;28;20217;-77
2023/01/22 10:45:33;;;;;;;0.00;0.00;;;;;;;;;;4972744;28;20198;-78
2023/01/22 10:48:13;;;;;;;0.10;0.10;;;;;;;;;;4968695;28;20226;-77
2023/01/22 10:50:44;;;;;;;0.00;0.00;;;;;;;;;;4972185;28;20292;-77
2023/01/22 10:53:18;;;;;;;0.00;0.00;;;;;;;;;;4972526;28;20214;-77
2023/01/22 10:55:52;;;;;;;0.00;0.00;;;;;;;;;;4965956;28;20275;-77
2023/01/22 10:58:22;;;;;;;0.10;0.10;;;;;;;;;;4972286;28;20694;-77
2023/01/22 11:00:57;;;;;;;0.00;0.00;;;;;;;;;;4973250;28;20215;-77
2023/01/22 11:03:30;;;;;;;0.00;0.00;;;;;;;;;;4972224;28;20721;-77
2023/01/22 11:06:02;;;;;;;0.00;0.00;;;;;;;;;;4959093;28;20205;-77
2023/01/22 11:08:34;;;;;;;0.00;0.00;;;;;;;;;;4972648;28;20232;-77
2023/01/22 11:11:06;;;;;;;0.00;0.00;;;;;;;;;;4972527;28;20679;-77
2023/01/22 11:13:38;;;;;;;0.00;0.00;;;;;;;;;;4970933;28;20198;-77
2023/01/22 11:16:10;;;;;;;0.00;0.00;;;;;;;;;;4964710;28;20649;-77
2023/01/22 11:18:40;;;;;;;0.00;0.00;;;;;;;;;;4972960;28;20312;-77
2023/01/22 11:21:13;;;;;;;0.00;0.00;;;;;;;;;;4967688;28;20899;-77
2023/01/22 11:23:45;;;;;;;0.00;0.00;;;;;;;;;;4968517;28;20248;-77
2023/01/22 11:26:17;;;;;;;0.00;0.00;;;;;;;;;;4966027;28;20269;-77
2023/01/22 11:28:50;;;;;;;0.00;0.00;;;;;;;;;;4975521;28;20228;-76
2023/01/22 11:31:33;;;;;;;0.10;0.10;;;;;;;;;;4970453;28;20256;-76
2023/01/22 11:34:12;;;;;;;0.00;0.00;;;;;;;;;;4973531;28;20260;-77
2023/01/22 11:36:46;;;;;;;0.00;0.00;;;;;;;;;;4972343;28;20198;-77
2023/01/22 11:39:19;;;;;;;0.00;0.00;;;;;;;;;;4969251;28;20271;-77
2023/01/22 11:41:54;;;;;;;0.03;0.03;;;;;;;;;;4975859;28;20252;-76
2023/01/22 11:44:47;;;;;;;0.00;0.00;;;;;;;;;;4970019;28;20202;-77
2023/01/22 11:47:25;;;;;;;0.07;0.07;;;;;;;;;;4970753;28;20244;-77
2023/01/22 11:50:00;;;;;;;0.00;0.00;;;;;;;;;;4966784;28;20229;-77
2023/01/22 11:52:37;;;;;;;0.00;0.00;;;;;;;;;;4969774;28;20218;-77
2023/01/22 11:55:18;;;;;;;0.00;0.00;;;;;;;;;;4973425;28;20681;-77
2023/01/22 11:57:50;;;;;;;0.00;0.00;;;;;;;;;;4968504;28;20706;-76
2023/01/22 12:00:24;;;;;;;0.00;0.00;;;;;;;;;;4972847;28;20248;-77
2023/01/22 12:03:01;;;;;;;0.10;0.10;;;;;;;;;;4973614;28;20260;-76
2023/01/22 12:05:35;;;;;;;0.00;0.00;;;;;;;;;;4969322;28;20211;-77
2023/01/22 12:08:15;;;;;;;0.10;0.10;;;;;;;;;;4967398;28;20256;-77
2023/01/22 12:10:55;;;;;;;0.00;0.00;;;;;;;;;;4972458;28;20284;-77
2023/01/22 12:13:28;;;;;;;0.07;0.07;;;;;;;;;;4962325;28;20204;-77
2023/01/22 12:15:59;;;;;;;0.00;0.00;;;;;;;;;;4975204;28;20305;-77
2023/01/22 12:18:42;;;;;;;0.00;0.00;;;;;;;;;;4971917;28;20605;-77
2023/01/22 12:21:14;;;;;;;0.00;0.00;;;;;;;;;;4971712;28;20288;-77
2023/01/22 12:23:48;;;;;;;0.00;0.00;;;;;;;;;;4957057;29;20233;-77
2023/01/22 12:26:18;;;;;;;0.00;0.00;;;;;;;;;;4963226;28;20237;-77
2023/01/22 12:28:49;;;;;;;0.10;0.10;;;;;;;;;;4963689;28;20276;-77
2023/01/22 12:31:21;;;;;;;0.00;0.00;;;;;;;;;;4968785;28;20671;-77
2023/01/22 12:33:53;;;;;;;0.00;0.00;;;;;;;;;;4972636;28;20205;-79
2023/01/22 12:36:26;;;;;;;0.00;0.00;;;;;;;;;;4975543;28;20292;-79
2023/01/22 12:39:00;;;;;;;0.00;0.00;;;;;;;;;;4976098;28;20594;-79
2023/01/22 12:41:44;;;;;;;0.00;0.00;;;;;;;;;;4975910;28;20209;-79
2023/01/22 12:44:36;;;;;;;0.00;0.00;;;;;;;;;;4975981;28;20218;-79
2023/01/22 12:47:09;;;;;;;0.00;0.00;;;;;;;;;;4962000;28;20559;-79
2023/01/22 12:49:48;;;;;;;0.00;0.00;;;;;;;;;;4975249;28;20244;-79
2023/01/22 12:52:34;;;;;;;0.00;0.00;;;;;;;;;;4934020;28;1215191;-79
2023/01/22 12:55:05;;;;;;;0.00;0.00;;;;;;;;;;4976619;28;20197;-79
2023/01/22 12:57:38;;;;;;;0.00;0.00;;;;;;;;;;4975854;28;20190;-79
2023/01/22 13:00:12;;;;;;;0.00;0.00;;;;;;;;;;4958358;28;20656;-79
2023/01/22 13:02:41;;;;;;;0.00;0.00;;;;;;;;;;4957123;29;20616;-79
2023/01/22 13:05:11;;;;;;;0.00;0.00;;;;;;;;;;4957277;29;20743;-80
2023/01/22 13:07:41;;;;;;;0.00;0.00;;;;;;;;;;4957242;28;20194;-80
2023/01/22 13:10:24;;;;;;;0.00;0.00;;;;;;;;;;4956808;29;20230;-80
2023/01/22 13:12:53;;;;;;;0.00;0.00;;;;;;;;;;4957108;29;20640;-80
2023/01/22 13:15:24;;;;;;;0.00;0.00;;;;;;;;;;4956605;29;20210;-80
2023/01/22 13:17:57;;;;;;;0.00;0.00;;;;;;;;;;4956871;28;20226;-80
2023/01/22 13:20:35;;;;;;;0.00;0.00;;;;;;;;;;4956928;29;20261;-81
2023/01/22 13:23:05;;;;;;;0.00;0.00;;;;;;;;;;4956804;29;20238;-80
2023/01/22 13:25:35;;;;;;;0.00;0.00;;;;;;;;;;4956710;29;20214;-80
2023/01/22 13:28:04;;;;;;;0.00;0.00;;;;;;;;;;4956475;28;20281;-80
2023/01/22 13:30:32;;;;;;;0.00;0.00;;;;;;;;;;4956641;29;20220;-79
2023/01/22 13:33:08;;;;;;;0.00;0.00;;;;;;;;;;4956494;29;20253;-81
2023/01/22 13:35:37;;;;;;;0.00;0.00;;;;;;;;;;4956522;29;20209;-80
2023/01/22 13:38:05;;;;;;;0.00;0.00;;;;;;;;;;4955657;28;20262;-81
2023/01/22 13:40:35;;;;;;;0.00;0.00;;;;;;;;;;4956749;29;20203;-81
2023/01/22 13:43:19;;;;;;;0.00;0.00;;;;;;;;;;4955984;29;20209;-81
2023/01/22 13:45:47;;;;;;;0.00;0.00;;;;;;;;;;4956346;29;20214;-81
2023/01/22 13:48:17;;;;;;;0.00;0.00;;;;;;;;;;4956263;28;20230;-81
2023/01/22 13:50:47;;;;;;;0.00;0.00;;;;;;;;;;4953106;29;20692;-80
2023/01/22 13:53:26;;;;;;;0.00;0.00;;;;;;;;;;4953982;29;20642;-81
2023/01/22 13:55:58;;;;;;;0.10;0.10;;;;;;;;;;4955286;29;20290;-80
2023/01/22 13:58:31;;;;;;;0.00;0.00;;;;;;;;;;4956533;28;20233;-81
2023/01/22 14:01:26;;;;;;;0.00;0.00;;;;;;;;;;4956049;29;20703;-81
2023/01/22 14:03:59;;;;;;;0.00;0.00;;;;;;;;;;4955977;29;20281;-81
2023/01/22 14:06:29;;;;;;;0.00;0.00;;;;;;;;;;4954905;28;20215;-81
2023/01/22 14:08:58;;;;;;;0.00;0.00;;;;;;;;;;4954421;28;20747;-79
2023/01/22 14:11:37;;;;;;;0.10;0.10;;;;;;;;;;4954083;29;20606;-80
2023/01/22 14:14:15;;;;;;;0.00;0.00;;;;;;;;;;4954165;29;20216;-77
2023/01/22 14:16:43;;;;;;;0.00;0.00;;;;;;;;;;4962450;28;20209;-77
2023/01/22 14:19:12;;;;;;;0.00;0.00;;;;;;;;;;4968163;28;20221;-77
2023/01/22 14:21:40;;;;;;;0.00;0.00;;;;;;;;;;4969202;28;20232;-77
2023/01/22 14:24:09;;;;;;;0.00;0.00;;;;;;;;;;4972524;28;20257;-76
2023/01/22 14:26:40;;;;;;;0.00;0.00;;;;;;;;;;4968794;28;20256;-77
2023/01/22 14:29:12;;;;;;;0.00;0.00;;;;;;;;;;4970079;28;20238;-76
2023/01/22 14:31:42;;;;;;;0.00;0.00;;;;;;;;;;4965764;28;20762;-76
2023/01/22 14:34:12;;;;;;;0.00;0.00;;;;;;;;;;4969672;28;20257;-76
2023/01/22 14:36:43;;;;;;;0.00;0.00;;;;;;;;;;4959845;28;20209;-77
2023/01/22 14:39:12;;;;;;;0.10;0.10;;;;;;;;;;4970229;28;20218;-76
2023/01/22 14:41:42;;;;;;;0.00;0.00;;;;;;;;;;4969800;28;20221;-78
2023/01/22 14:44:10;;;;;;;0.00;0.00;;;;;;;;;;4964373;28;20253;-77
2023/01/22 14:46:40;;;;;;;0.00;0.00;;;;;;;;;;4959662;28;20218;-77
2023/01/22 14:49:09;;;;;;;0.00;0.00;;;;;;;;;;4968387;28;20261;-76
2023/01/22 14:51:37;;;;;;;0.00;0.00;;;;;;;;;;4966947;28;20869;-76
2023/01/22 14:54:06;;;;;;;0.00;0.00;;;;;;;;;;4966399;28;20217;-76
2023/01/22 14:56:34;;;;;;;0.00;0.00;;;;;;;;;;4965899;28;20244;-77
2023/01/22 14:59:04;;;;;;;0.00;0.00;;;;;;;;;;4970903;28;20230;-77
2023/01/22 15:01:33;;;;;;;0.00;0.00;;;;;;;;;;4961118;28;20282;-77
2023/01/22 15:04:02;;;;;;;0.00;0.00;;;;;;;;;;4969386;28;20211;-77
2023/01/22 15:06:31;;;;;;;0.07;0.07;;;;;;;;;;4971949;28;20256;-78
2023/01/22 15:09:00;;;;;;;0.00;0.00;;;;;;;;;;4958357;28;20218;-76
2023/01/22 15:11:28;;;;;;;0.10;0.10;;;;;;;;;;4974364;28;20652;-76
2023/01/22 15:13:56;;;;;;;0.10;0.10;;;;;;;;;;4974062;28;20638;-76
2023/01/22 15:16:26;;;;;;;0.00;0.00;;;;;;;;;;4971518;28;20729;-76
2023/01/22 15:18:55;;;;;;;0.00;0.00;;;;;;;;;;4969182;28;20248;-76
2023/01/22 15:21:24;;;;;;;0.00;0.00;;;;;;;;;;4970035;28;20213;-76
2023/01/22 15:23:52;;;;;;;0.00;0.00;;;;;;;;;;4970259;28;20209;-76
2023/01/22 15:26:23;;;;;;;0.00;0.00;;;;;;;;;;4963280;28;20216;-76
2023/01/22 15:28:52;;;;;;;0.00;0.00;;;;;;;;;;4973580;28;20229;-76
2023/01/22 15:31:22;;;;;;;0.00;0.00;;;;;;;;;;4958947;28;20254;-78
2023/01/22 15:34:00;;;;;;;0.10;0.10;;;;;;;;;;4967938;28;20619;-76
2023/01/22 15:36:30;;;;;;;0.10;0.10;;;;;;;;;;4967664;28;20652;-76
2023/01/22 15:38:59;;;;;;;0.00;0.00;;;;;;;;;;4957402;28;20225;-76
2023/01/22 15:41:28;;;;;;;0.00;0.00;;;;;;;;;;4971990;28;20625;-77
2023/01/22 15:43:59;;;;;;;0.00;0.00;;;;;;;;;;4963308;28;20256;-78
2023/01/22 15:46:30;;;;;;;0.00;0.00;;;;;;;;;;4969320;28;20202;-78
2023/01/22 15:49:01;;;;;;;0.00;0.00;;;;;;;;;;4970997;28;20238;-77
2023/01/22 15:51:43;;;;;;;0.00;0.00;;;;;;;;;;4970588;28;20218;-77
2023/01/22 15:54:14;;;;;;;0.00;0.00;;;;;;;;;;4955528;28;20237;-76
2023/01/22 15:56:43;;;;;;;0.00;0.00;;;;;;;;;;4962862;28;20906;-77
2023/01/22 15:59:12;;;;;;;0.00;0.00;;;;;;;;;;4969029;28;20229;-76
2023/01/22 16:01:40;;;;;;;0.00;0.00;;;;;;;;;;4967255;28;20289;-76
2023/01/22 16:04:10;;;;;;;0.00;0.00;;;;;;;;;;4957365;28;20205;-76
2023/01/22 16:06:39;;;;;;;0.00;0.00;;;;;;;;;;4974006;28;20218;-76
2023/01/22 16:09:08;;;;;;;0.00;0.00;;;;;;;;;;4968080;28;20234;-76
2023/01/22 16:14:31;;;;;;;0.00;0.00;;;;;;;;;;4953963;28;20210;-75
2023/01/22 16:17:00;;;;;;;0.00;0.00;;;;;;;;;;4972256;28;20684;-76
2023/01/22 16:19:30;;;;;;;0.00;0.00;;;;;;;;;;4970552;28;20253;-77
2023/01/22 16:21:59;;;;;;;0.00;0.00;;;;;;;;;;4974237;28;20225;-76
2023/01/22 16:24:27;;;;;;;0.00;0.00;;;;;;;;;;4969381;28;20213;-76
2023/01/22 16:26:56;;;;;;;0.00;0.00;;;;;;;;;;4959231;28;20213;-76
2023/01/22 16:29:26;;;;;;;0.00;0.00;;;;;;;;;;4975004;28;20240;-77
2023/01/22 16:31:55;;;;;;;0.00;0.00;;;;;;;;;;4986868;28;20218;-77
2023/01/22 16:34:23;;;;;;;0.00;0.00;;;;;;;;;;4956262;28;20295;-77
2023/01/22 16:36:54;;;;;;;0.00;0.00;;;;;;;;;;4964065;28;20210;-77
2023/01/22 16:39:24;;;;;;;0.00;0.00;;;;;;;;;;4974231;28;20237;-76
2023/01/22 16:41:53;;;;;;;0.00;0.00;;;;;;;;;;4975419;28;20230;-76
2023/01/22 16:44:25;;;;;;;0.00;0.00;;;;;;;;;;4974492;28;20706;-76
2023/01/22 16:46:56;;;;;;;0.00;0.00;;;;;;;;;;4969904;28;20209;-76
2023/01/22 16:49:25;;;;;;;0.00;0.00;;;;;;;;;;4974866;28;20232;-75
2023/01/22 16:51:56;;;;;;;0.00;0.00;;;;;;;;;;4972973;28;20762;-76
2023/01/22 16:54:26;;;;;;;0.00;0.00;;;;;;;;;;4971998;28;20257;-76
2023/01/22 16:56:55;;;;;;;0.00;0.00;;;;;;;;;;4965027;28;20209;-76
2023/01/22 16:59:24;;;;;;;0.00;0.00;;;;;;;;;;4957406;28;20223;-76
2023/01/22 17:01:53;;;;;;;0.00;0.00;;;;;;;;;;4971363;28;20210;-76
2023/01/22 17:04:21;;;;;;;0.00;0.00;;;;;;;;;;4966122;28;20214;-77
2023/01/22 17:06:51;;;;;;;0.00;0.00;;;;;;;;;;4972297;28;20206;-76
2023/01/22 17:09:21;;;;;;;0.00;0.00;;;;;;;;;;4965165;28;20245;-76
2023/01/22 17:11:51;;;;;;;0.00;0.00;;;;;;;;;;4962140;28;20250;-76
2023/01/22 17:14:25;;;;;;;0.00;0.00;;;;;;;;;;4953493;28;20219;-76
2023/01/22 17:16:56;;;;;;;0.00;0.00;;;;;;;;;;4957797;28;20604;-78
2023/01/22 17:19:26;;;;;;;0.00;0.00;;;;;;;;;;4968077;28;20225;-76
2023/01/22 17:21:57;;;;;;;0.00;0.00;;;;;;;;;;4970906;28;20202;-77
2023/01/22 17:24:30;;;;;;;0.00;0.00;;;;;;;;;;4972679;28;20671;-77
2023/01/22 17:27:01;;;;;;;0.00;0.00;;;;;;;;;;4972041;28;20210;-76
2023/01/22 17:29:33;;;;;;;0.00;0.00;;;;;;;;;;4957949;28;20857;-76
2023/01/22 17:32:02;;;;;;;0.00;0.00;;;;;;;;;;4957731;28;20702;-78
2023/01/22 17:34:31;;;;;;;0.00;0.00;;;;;;;;;;4966902;28;20206;-76
2023/01/22 17:37:00;;;;;;;0.00;0.00;;;;;;;;;;4962435;28;20741;-77
2023/01/22 17:39:29;;;;;;;0.00;0.00;;;;;;;;;;4966658;28;20218;-76
2023/01/22 17:41:58;;;;;;;0.00;0.00;;;;;;;;;;4968687;28;20248;-76
2023/01/22 17:44:28;;;;;;;0.00;0.00;;;;;;;;;;4972411;28;20300;-76
2023/01/22 17:46:58;;;;;;;0.00;0.00;;;;;;;;;;4972519;28;20245;-77